• Join FlightAware (Why Join?)
  • Login
  • US Flag 
03:41AM EDT


 

Airport Tracker/Info


-or-


 

Live Flight TrackerFlight Track Log ✈ ASQ5745 ✈ 16-May-2013 ✈ KIAD - KALB

Flight Track Log - Related Links

Times and Time Zones

All times are in EDT time to prevent confusion due to time zone crossing. See the ASQ5745 flight status page for this flight to view local times or setup timezone preferences in your user account.

Time Position Orientation Groundspeed Altitude Reporting Facility
EDT Latitude Longitude Course Direction KTS MPH feet Rate Location/Type
08:41AM 38.9667 -77.4333 North 182 209 1,800  Level Potomac TRACON
08:43AM 39.0500 -77.4500 351° North 254 292 4,700 2,640 Climbing Potomac TRACON
08:43AM 39.1167 -77.4500 360° North 264 304 7,200 2,460 Climbing Potomac TRACON
08:44AM 39.2091 -77.4500 North  Level FlightAware Approximate
08:44AM 39.1833 -77.4500 360° North 286 329 9,500  Level Potomac TRACON
08:45AM 39.3010 -77.4500 North  Level FlightAware Approximate
08:46AM 39.3929 -77.4500 North  Level FlightAware Approximate
08:47AM 39.4848 -77.4500 North  Level FlightAware Approximate
08:47AM 39.3786 -77.4469 North 331 381 13,100  Level Washington Center
08:48AM 39.4764 -77.4519 358° North 336 387 14,900 2,220 Climbing Washington Center
08:49AM 39.6428 -77.4522 360° North 371 427 18,800 1,800 Climbing New York Center
08:50AM 39.7425 -77.4561 358° North 359 413 19,600 840 Climbing New York Center
08:51AM 39.8450 -77.4525 North 365 420 20,500 840 Climbing New York Center
08:52AM 39.9497 -77.4083 18° North 371 427 21,400 780 Climbing New York Center
08:53AM 40.0481 -77.3281 32° Northeast 388 447 22,200 720 Climbing New York Center
08:54AM 40.1356 -77.2547 33° Northeast 405 466 22,900 360 Climbing New York Center
08:55AM 40.2381 -77.1692 32° Northeast 424 488 23,000  Climbing New York Center
08:56AM 40.3453 -77.0783 33° Northeast 440 506 23,000  Level New York Center
08:57AM 40.4594 -77.0042 26° Northeast 451 519 23,000  Level New York Center
08:58AM 40.5775 -76.9439 21° North 451 519 23,000  Level New York Center
08:59AM 40.6972 -76.8861 20° North 451 519 23,000  Level New York Center
09:00AM 40.8317 -76.8214 20° North 456 525 23,000  Level New York Center
09:01AM 40.9408 -76.7650 21° North 463 533 23,000  Level New York Center
09:02AM 41.0628 -76.7042 21° North 458 527 23,000  Level New York Center
09:03AM 41.1825 -76.6431 21° North 458 527 23,000  Level New York Center
09:04AM 41.3042 -76.5819 21° North 463 533 23,000  Level New York Center
09:05AM 41.4281 -76.5206 20° North 463 533 23,000  Level New York Center
09:06AM 41.5625 -76.4517 21° North 463 533 23,000  Level New York Center
09:07AM 41.6822 -76.3869 22° Northeast 463 533 23,000  Level New York Center
09:08AM 41.8019 -76.3219 22° Northeast 463 533 23,000  Level New York Center
09:09AM 41.9236 -76.2594 21° North 463 533 23,000  Level New York Center
09:11AM 42.1239 -75.9869 45° Northeast 462 532 23,000  Level Boston Center
09:12AM 42.1797 -75.8025 68° East 493 567 23,000  Level Boston Center
09:13AM 42.2328 -75.6200 69° East 507 583 23,000  Level Boston Center
09:14AM 42.2881 -75.4347 68° East 518 596 23,000 -420 Level Boston Center
09:15AM 42.3406 -75.2547 68° East 523 602 22,200 -1,740 Descending Boston Center
09:16AM 42.3906 -75.0825 68° East 511 588 19,600 -2,700 Descending Boston Center
09:17AM 42.4425 -74.9019 69° East 468 539 16,800 -2,700 Descending Boston Center
09:18AM 42.4547 -74.8125 79° East 447 514 15,500 -2,280 Descending Boston Center
09:18AM 42.4667 -74.7397 77° East 447 514 14,600 -1,980 Descending Boston Center
09:19AM 42.4808 -74.6556 77° East 423 487 13,500 -1,800 Descending Boston Center
09:19AM 42.4903 -74.5997 77° East 423 487 12,800 -2,040 Descending Boston Center
09:20AM 42.5089 -74.5017 76° East 407 468 11,500 -2,100 Descending Boston Center
09:20AM 42.5206 -74.4344 77° East 411 473 10,700 -1,140 Descending Boston Center
09:21AM 42.5364 -74.3617 74° East 376 433 10,400 -840 Descending Boston Center
09:21AM 42.5453 -74.3197 74° East 376 433 9,900 -1,380 Descending Boston Center
09:22AM 42.5633 -74.2414 73° East 318 366 9,000 -1,620 Descending Boston Center
09:22AM 42.5725 -74.1908 76° East 328 377 8,300 -1,800 Descending Boston Center
09:23AM 42.5878 -74.1322 70° East 305 351 7,200 -1,800 Descending Boston Center
09:23AM 42.5947 -74.0900 77° East 307 353 6,500 -1,920 Descending Boston Center
09:24AM 42.6147 -74.0086 72° East 299 344 5,100 -1,620 Descending Boston Center
09:24AM 42.6192 -73.9864 75° East 297 342 4,900 -1,020 Descending Boston Center
09:25AM 42.6325 -73.9161 76° East 265 305 4,200 -900 Descending Boston Center
09:25AM 42.6369 -73.8936 75° East 277 319 4,000 -540 Descending Boston Center